sensor_id;sensor_type;location;lat;lon;timestamp;pressure;altitude;pressure_sealevel;temperature;humidity
13734;BME280;43298;52.560;13.508;2023-07-20T00:01:47;100384.63;;;16.45;100.00
13734;BME280;43298;52.560;13.508;2023-07-20T00:04:13;100380.56;;;16.41;100.00
13734;BME280;43298;52.560;13.508;2023-07-20T00:06:39;100388.50;;;16.40;100.00
13734;BME280;43298;52.560;13.508;2023-07-20T00:09:08;100377.31;;;16.38;100.00
13734;BME280;43298;52.560;13.508;2023-07-20T00:11:37;100391.09;;;16.40;100.00
13734;BME280;43298;52.560;13.508;2023-07-20T00:14:05;100391.00;;;16.41;100.00
13734;BME280;43298;52.560;13.508;2023-07-20T00:16:31;100395.19;;;16.44;100.00
13734;BME280;43298;52.560;13.508;2023-07-20T00:18:57;100394.13;;;16.34;100.00
13734;BME280;43298;52.560;13.508;2023-07-20T00:21:25;100396.84;;;16.32;100.00
13734;BME280;43298;52.560;13.508;2023-07-20T00:23:51;100401.47;;;16.29;100.00
13734;BME280;43298;52.560;13.508;2023-07-20T00:26:17;100402.41;;;16.28;100.00
13734;BME280;43298;52.560;13.508;2023-07-20T00:28:43;100398.13;;;16.27;100.00
13734;BME280;43298;52.560;13.508;2023-07-20T00:31:09;100401.19;;;16.21;100.00
13734;BME280;43298;52.560;13.508;2023-07-20T00:33:36;100401.38;;;16.18;100.00
13734;BME280;43298;52.560;13.508;2023-07-20T00:36:02;100398.66;;;16.19;100.00
13734;BME280;43298;52.560;13.508;2023-07-20T00:38:28;100401.88;;;16.23;100.00
13734;BME280;43298;52.560;13.508;2023-07-20T00:40:54;100401.38;;;16.18;100.00
13734;BME280;43298;52.560;13.508;2023-07-20T00:43:20;100403.88;;;16.19;100.00
13734;BME280;43298;52.560;13.508;2023-07-20T00:45:46;100408.06;;;16.09;100.00
13734;BME280;43298;52.560;13.508;2023-07-20T00:48:13;100406.09;;;16.00;100.00
13734;BME280;43298;52.560;13.508;2023-07-20T00:50:40;100407.25;;;15.96;100.00
13734;BME280;43298;52.560;13.508;2023-07-20T00:53:07;100404.13;;;15.91;100.00
13734;BME280;43298;52.560;13.508;2023-07-20T00:55:34;100408.00;;;15.86;100.00
13734;BME280;43298;52.560;13.508;2023-07-20T00:58:00;100405.38;;;15.86;100.00
13734;BME280;43298;52.560;13.508;2023-07-20T01:00:27;100402.25;;;15.81;100.00
13734;BME280;43298;52.560;13.508;2023-07-20T01:02:53;100402.69;;;15.75;100.00
13734;BME280;43298;52.560;13.508;2023-07-20T01:05:20;100403.59;;;15.74;100.00
13734;BME280;43298;52.560;13.508;2023-07-20T01:07:55;100403.09;;;15.81;100.00
13734;BME280;43298;52.560;13.508;2023-07-20T01:10:41;100397.75;;;15.83;100.00
13734;BME280;43298;52.560;13.508;2023-07-20T01:13:10;100401.44;;;15.80;100.00
13734;BME280;43298;52.560;13.508;2023-07-20T01:15:38;100405.38;;;15.86;100.00
13734;BME280;43298;52.560;13.508;2023-07-20T01:18:04;100400.16;;;15.86;100.00
13734;BME280;43298;52.560;13.508;2023-07-20T01:20:32;100392.56;;;15.83;100.00
13734;BME280;43298;52.560;13.508;2023-07-20T01:29:34;100405.59;;;15.95;100.00
13734;BME280;43298;52.560;13.508;2023-07-20T01:32:03;100408.50;;;16.03;100.00
13734;BME280;43298;52.560;13.508;2023-07-20T01:34:31;100409.53;;;16.13;100.00
13734;BME280;43298;52.560;13.508;2023-07-20T01:37:00;100413.47;;;16.19;100.00
13734;BME280;43298;52.560;13.508;2023-07-20T01:39:28;100432.47;;;16.21;100.00
13734;BME280;43298;52.560;13.508;2023-07-20T01:41:56;100441.97;;;16.22;100.00
13734;BME280;43298;52.560;13.508;2023-07-20T01:44:24;100427.88;;;16.24;100.00
13734;BME280;43298;52.560;13.508;2023-07-20T01:46:53;100440.81;;;16.26;100.00
13734;BME280;43298;52.560;13.508;2023-07-20T01:49:22;100434.44;;;16.30;100.00
13734;BME280;43298;52.560;13.508;2023-07-20T01:51:51;100438.94;;;16.28;100.00
13734;BME280;43298;52.560;13.508;2023-07-20T01:54:20;100440.91;;;16.24;100.00
13734;BME280;43298;52.560;13.508;2023-07-20T01:56:49;100433.72;;;16.28;100.00
13734;BME280;43298;52.560;13.508;2023-07-20T01:59:15;100432.25;;;16.24;100.00
13734;BME280;43298;52.560;13.508;2023-07-20T02:01:41;100430.78;;;16.20;100.00
13734;BME280;43298;52.560;13.508;2023-07-20T02:04:07;100439.78;;;16.16;100.00
13734;BME280;43298;52.560;13.508;2023-07-20T02:06:33;100438.53;;;16.09;100.00
13734;BME280;43298;52.560;13.508;2023-07-20T02:08:59;100435.91;;;16.09;100.00
13734;BME280;43298;52.560;13.508;2023-07-20T02:11:25;100433.09;;;16.12;100.00
13734;BME280;43298;52.560;13.508;2023-07-20T02:13:51;100438.44;;;16.10;100.00
13734;BME280;43298;52.560;13.508;2023-07-20T02:16:17;100442.28;;;16.05;100.00
13734;BME280;43298;52.560;13.508;2023-07-20T02:18:44;100432.28;;;15.99;100.00
13734;BME280;43298;52.560;13.508;2023-07-20T02:21:10;100431.47;;;15.98;100.00
13734;BME280;43298;52.560;13.508;2023-07-20T02:23:36;100436.47;;;16.01;100.00
13734;BME280;43298;52.560;13.508;2023-07-20T02:26:02;100440.63;;;16.04;100.00
13734;BME280;43298;52.560;13.508;2023-07-20T02:28:28;100434.75;;;16.13;100.00
13734;BME280;43298;52.560;13.508;2023-07-20T02:30:54;100433.94;;;16.12;100.00
13734;BME280;43298;52.560;13.508;2023-07-20T02:33:21;100438.03;;;16.04;100.00
13734;BME280;43298;52.560;13.508;2023-07-20T02:35:47;100439.16;;;16.12;100.00
13734;BME280;43298;52.560;13.508;2023-07-20T02:38:13;100437.38;;;16.00;100.00
13734;BME280;43298;52.560;13.508;2023-07-20T02:40:39;100438.97;;;16.03;100.00
13734;BME280;43298;52.560;13.508;2023-07-20T02:43:06;100433.31;;;15.96;100.00
13734;BME280;43298;52.560;13.508;2023-07-20T02:45:32;100431.34;;;15.87;100.00
13734;BME280;43298;52.560;13.508;2023-07-20T02:47:58;100426.03;;;15.89;100.00
13734;BME280;43298;52.560;13.508;2023-07-20T02:50:24;100427.06;;;15.86;100.00
13734;BME280;43298;52.560;13.508;2023-07-20T02:52:50;100426.44;;;15.83;100.00
13734;BME280;43298;52.560;13.508;2023-07-20T02:55:16;100430.22;;;15.91;100.00
13734;BME280;43298;52.560;13.508;2023-07-20T02:57:42;100439.28;;;15.86;100.00
13734;BME280;43298;52.560;13.508;2023-07-20T03:00:09;100442.09;;;15.83;100.00
13734;BME280;43298;52.560;13.508;2023-07-20T03:02:35;100447.09;;;15.86;100.00
13734;BME280;43298;52.560;13.508;2023-07-20T03:05:02;100450.44;;;15.88;100.00
13734;BME280;43298;52.560;13.508;2023-07-20T03:07:31;100457.34;;;15.89;100.00
13734;BME280;43298;52.560;13.508;2023-07-20T03:09:57;100457.44;;;15.87;100.00
13734;BME280;43298;52.560;13.508;2023-07-20T03:12:23;100457.53;;;15.86;100.00
13734;BME280;43298;52.560;13.508;2023-07-20T03:14:50;100461.06;;;15.85;100.00
13734;BME280;43298;52.560;13.508;2023-07-20T03:17:16;100456.09;;;15.82;100.00
13734;BME280;43298;52.560;13.508;2023-07-20T03:19:42;100464.22;;;15.90;100.00
13734;BME280;43298;52.560;13.508;2023-07-20T03:22:09;100464.81;;;15.81;100.00
13734;BME280;43298;52.560;13.508;2023-07-20T03:24:35;100465.88;;;15.78;100.00
13734;BME280;43298;52.560;13.508;2023-07-20T03:27:01;100462.31;;;15.79;100.00
13734;BME280;43298;52.560;13.508;2023-07-20T03:29:27;100458.78;;;15.80;100.00
13734;BME280;43298;52.560;13.508;2023-07-20T03:31:53;100456.91;;;15.82;100.00
13734;BME280;43298;52.560;13.508;2023-07-20T03:34:19;100452.72;;;15.80;100.00
13734;BME280;43298;52.560;13.508;2023-07-20T03:36:45;100465.97;;;15.77;100.00
13734;BME280;43298;52.560;13.508;2023-07-20T03:39:11;100469.22;;;15.80;100.00
13734;BME280;43298;52.560;13.508;2023-07-20T03:41:37;100471.50;;;15.85;100.00
13734;BME280;43298;52.560;13.508;2023-07-20T03:44:04;100467.63;;;15.90;100.00
13734;BME280;43298;52.560;13.508;2023-07-20T03:46:31;100469.31;;;15.91;100.00
13734;BME280;43298;52.560;13.508;2023-07-20T03:48:57;100467.53;;;15.92;100.00
13734;BME280;43298;52.560;13.508;2023-07-20T03:51:23;100472.75;;;15.92;100.00
13734;BME280;43298;52.560;13.508;2023-07-20T03:53:49;100469.22;;;15.93;100.00
13734;BME280;43298;52.560;13.508;2023-07-20T03:56:16;100466.63;;;15.93;100.00
13734;BME280;43298;52.560;13.508;2023-07-20T03:58:42;100473.19;;;15.86;100.00
13734;BME280;43298;52.560;13.508;2023-07-20T04:01:08;100475.69;;;15.87;100.00
13734;BME280;43298;52.560;13.508;2023-07-20T04:03:35;100477.44;;;15.87;100.00
13734;BME280;43298;52.560;13.508;2023-07-20T04:06:02;100479.31;;;15.85;100.00
13734;BME280;43298;52.560;13.508;2023-07-20T04:08:28;100475.91;;;15.84;100.00
13734;BME280;43298;52.560;13.508;2023-07-20T04:10:54;100485.88;;;15.78;100.00
13734;BME280;43298;52.560;13.508;2023-07-20T04:13:21;100479.75;;;15.79;100.00
13734;BME280;43298;52.560;13.508;2023-07-20T04:15:48;100480.47;;;15.81;100.00
13734;BME280;43298;52.560;13.508;2023-07-20T04:18:14;100485.47;;;15.84;100.00
13734;BME280;43298;52.560;13.508;2023-07-20T04:20:40;100485.56;;;15.82;100.00
13734;BME280;43298;52.560;13.508;2023-07-20T04:23:06;100488.28;;;15.93;100.00
13734;BME280;43298;52.560;13.508;2023-07-20T04:25:32;100484.97;;;15.91;100.00
13734;BME280;43298;52.560;13.508;2023-07-20T04:28:08;100485.94;;;16.03;100.00
13734;BME280;43298;52.560;13.508;2023-07-20T04:30:38;100479.03;;;16.02;100.00
13734;BME280;43298;52.560;13.508;2023-07-20T04:33:05;100478.50;;;16.09;100.00
13734;BME280;43298;52.560;13.508;2023-07-20T04:38:16;100493.09;;;16.12;100.00
13734;BME280;43298;52.560;13.508;2023-07-20T04:40:45;100490.91;;;16.06;100.00
13734;BME280;43298;52.560;13.508;2023-07-20T04:43:12;100497.38;;;16.13;100.00
13734;BME280;43298;52.560;13.508;2023-07-20T04:45:38;100499.06;;;16.14;100.00
13734;BME280;43298;52.560;13.508;2023-07-20T04:48:06;100494.56;;;16.16;100.00
13734;BME280;43298;52.560;13.508;2023-07-20T04:50:34;100502.28;;;16.17;100.00
13734;BME280;43298;52.560;13.508;2023-07-20T04:53:00;100494.88;;;16.24;100.00
13734;BME280;43298;52.560;13.508;2023-07-20T04:55:28;100493.00;;;16.26;100.00
13734;BME280;43298;52.560;13.508;2023-07-20T04:57:54;100494.66;;;16.27;100.00
13734;BME280;43298;52.560;13.508;2023-07-20T05:00:20;100497.38;;;16.38;100.00
13734;BME280;43298;52.560;13.508;2023-07-20T05:02:47;100499.78;;;16.41;100.00
13734;BME280;43298;52.560;13.508;2023-07-20T05:05:15;100506.47;;;16.45;100.00
13734;BME280;43298;52.560;13.508;2023-07-20T05:07:41;100504.47;;;16.36;100.00
13734;BME280;43298;52.560;13.508;2023-07-20T05:10:07;100503.88;;;16.45;100.00
13734;BME280;43298;52.560;13.508;2023-07-20T05:12:34;100514.09;;;16.48;100.00
13734;BME280;43298;52.560;13.508;2023-07-20T05:15:00;100512.41;;;16.59;100.00
13734;BME280;43298;52.560;13.508;2023-07-20T05:17:26;100510.19;;;16.66;100.00
13734;BME280;43298;52.560;13.508;2023-07-20T05:19:52;100506.16;;;16.62;100.00
13734;BME280;43298;52.560;13.508;2023-07-20T05:22:18;100509.56;;;16.75;100.00
13734;BME280;43298;52.560;13.508;2023-07-20T05:24:44;100505.69;;;16.80;100.00
13734;BME280;43298;52.560;13.508;2023-07-20T05:27:10;100511.03;;;16.79;100.00
13734;BME280;43298;52.560;13.508;2023-07-20T05:29:36;100512.75;;;16.91;100.00
13734;BME280;43298;52.560;13.508;2023-07-20T05:32:03;100510.78;;;16.94;100.00
13734;BME280;43298;52.560;13.508;2023-07-20T05:34:29;100515.25;;;16.92;100.00
13734;BME280;43298;52.560;13.508;2023-07-20T05:36:56;100509.66;;;17.09;100.00
13734;BME280;43298;52.560;13.508;2023-07-20T05:39:22;100499.31;;;17.08;100.00
13734;BME280;43298;52.560;13.508;2023-07-20T05:41:48;100501.56;;;17.01;100.00
13734;BME280;43298;52.560;13.508;2023-07-20T05:44:14;100510.44;;;16.99;100.00
13734;BME280;43298;52.560;13.508;2023-07-20T05:46:40;100510.88;;;16.93;100.00
13734;BME280;43298;52.560;13.508;2023-07-20T05:49:06;100512.53;;;16.94;100.00
13734;BME280;43298;52.560;13.508;2023-07-20T05:51:32;100516.88;;;17.06;100.00
13734;BME280;43298;52.560;13.508;2023-07-20T05:53:58;100513.66;;;17.26;100.00
13734;BME280;43298;52.560;13.508;2023-07-20T05:56:25;100511.28;;;17.46;100.00
13734;BME280;43298;52.560;13.508;2023-07-20T05:58:51;100512.22;;;17.69;100.00
13734;BME280;43298;52.560;13.508;2023-07-20T06:01:17;100515.78;;;17.68;100.00
13734;BME280;43298;52.560;13.508;2023-07-20T06:03:45;100508.72;;;17.81;100.00
13734;BME280;43298;52.560;13.508;2023-07-20T06:06:11;100515.53;;;18.06;100.00
13734;BME280;43298;52.560;13.508;2023-07-20T06:08:38;100513.88;;;18.05;100.00
13734;BME280;43298;52.560;13.508;2023-07-20T06:11:04;100515.00;;;17.89;100.00
13734;BME280;43298;52.560;13.508;2023-07-20T06:13:30;100525.38;;;18.02;100.00
13734;BME280;43298;52.560;13.508;2023-07-20T06:15:57;100516.16;;;18.20;100.00
13734;BME280;43298;52.560;13.508;2023-07-20T06:18:23;100535.06;;;18.24;100.00
13734;BME280;43298;52.560;13.508;2023-07-20T06:20:50;100533.50;;;18.10;100.00
13734;BME280;43298;52.560;13.508;2023-07-20T06:23:18;100536.81;;;18.01;100.00
13734;BME280;43298;52.560;13.508;2023-07-20T06:25:44;100532.75;;;17.97;100.00
13734;BME280;43298;52.560;13.508;2023-07-20T06:28:11;100538.00;;;17.97;100.00
13734;BME280;43298;52.560;13.508;2023-07-20T06:30:37;100541.31;;;17.88;100.00
13734;BME280;43298;52.560;13.508;2023-07-20T06:33:03;100538.81;;;17.87;100.00
13734;BME280;43298;52.560;13.508;2023-07-20T06:35:29;100549.75;;;17.92;100.00
13734;BME280;43298;52.560;13.508;2023-07-20T06:37:55;100544.59;;;17.79;100.00
13734;BME280;43298;52.560;13.508;2023-07-20T06:40:22;100544.63;;;17.90;100.00
13734;BME280;43298;52.560;13.508;2023-07-20T06:42:48;100549.97;;;17.88;100.00
13734;BME280;43298;52.560;13.508;2023-07-20T06:45:14;100553.72;;;18.08;100.00
13734;BME280;43298;52.560;13.508;2023-07-20T06:47:41;100558.06;;;17.97;100.00
13734;BME280;43298;52.560;13.508;2023-07-20T06:50:08;100556.88;;;17.89;100.00
13734;BME280;43298;52.560;13.508;2023-07-20T06:52:34;100558.47;;;17.68;100.00
13734;BME280;43298;52.560;13.508;2023-07-20T06:55:00;100567.38;;;17.66;100.00
13734;BME280;43298;52.560;13.508;2023-07-20T06:57:27;100571.09;;;17.74;100.00
13734;BME280;43298;52.560;13.508;2023-07-20T06:59:53;100571.59;;;17.79;100.00
13734;BME280;43298;52.560;13.508;2023-07-20T07:02:19;100574.63;;;17.97;100.00
13734;BME280;43298;52.560;13.508;2023-07-20T07:04:45;100576.31;;;18.44;100.00
13734;BME280;43298;52.560;13.508;2023-07-20T07:07:14;100577.00;;;19.34;100.00
13734;BME280;43298;52.560;13.508;2023-07-20T07:09:41;100582.25;;;19.23;100.00
13734;BME280;43298;52.560;13.508;2023-07-20T07:12:08;100571.03;;;19.74;100.00
13734;BME280;43298;52.560;13.508;2023-07-20T07:14:34;100574.50;;;19.95;100.00
13734;BME280;43298;52.560;13.508;2023-07-20T07:17:00;100574.16;;;19.26;100.00
13734;BME280;43298;52.560;13.508;2023-07-20T07:19:26;100580.47;;;18.90;100.00
13734;BME280;43298;52.560;13.508;2023-07-20T07:21:53;100574.91;;;18.73;100.00
13734;BME280;43298;52.560;13.508;2023-07-20T07:24:19;100574.91;;;18.51;100.00
13734;BME280;43298;52.560;13.508;2023-07-20T07:26:45;100575.00;;;18.38;100.00
13734;BME280;43298;52.560;13.508;2023-07-20T07:29:12;100571.31;;;18.52;100.00
13734;BME280;43298;52.560;13.508;2023-07-20T07:31:38;100593.56;;;19.34;100.00
13734;BME280;43298;52.560;13.508;2023-07-20T07:34:05;100582.00;;;19.68;100.00
13734;BME280;43298;52.560;13.508;2023-07-20T07:36:31;100590.56;;;19.39;100.00
13734;BME280;43298;52.560;13.508;2023-07-20T07:38:58;100581.56;;;20.56;100.00
13734;BME280;43298;52.560;13.508;2023-07-20T07:41:24;100591.03;;;21.57;100.00
13734;BME280;43298;52.560;13.508;2023-07-20T07:43:50;100582.19;;;22.06;100.00
13734;BME280;43298;52.560;13.508;2023-07-20T07:46:16;100582.28;;;21.47;100.00
13734;BME280;43298;52.560;13.508;2023-07-20T07:48:43;100593.03;;;20.55;100.00
13734;BME280;43298;52.560;13.508;2023-07-20T07:51:09;100586.28;;;20.42;100.00
13734;BME280;43298;52.560;13.508;2023-07-20T07:53:35;100586.47;;;19.88;100.00
13734;BME280;43298;52.560;13.508;2023-07-20T07:56:02;100583.38;;;20.15;100.00
13734;BME280;43298;52.560;13.508;2023-07-20T07:58:29;100590.34;;;21.06;100.00
13734;BME280;43298;52.560;13.508;2023-07-20T08:00:55;100584.78;;;22.25;100.00
13734;BME280;43298;52.560;13.508;2023-07-20T08:03:21;100597.84;;;21.79;100.00
13734;BME280;43298;52.560;13.508;2023-07-20T08:05:50;100597.81;;;21.69;100.00
13734;BME280;43298;52.560;13.508;2023-07-20T08:08:17;100598.97;;;21.86;100.00
13734;BME280;43298;52.560;13.508;2023-07-20T08:10:43;100605.63;;;21.80;100.00
13734;BME280;43298;52.560;13.508;2023-07-20T08:13:09;100601.88;;;21.15;100.00
13734;BME280;43298;52.560;13.508;2023-07-20T08:15:35;100601.78;;;21.35;100.00
13734;BME280;43298;52.560;13.508;2023-07-20T08:18:01;100609.72;;;21.54;100.00
13734;BME280;43298;52.560;13.508;2023-07-20T08:20:27;100611.34;;;20.67;100.00
13734;BME280;43298;52.560;13.508;2023-07-20T08:22:55;100607.09;;;20.75;100.00
13734;BME280;43298;52.560;13.508;2023-07-20T08:25:22;100606.28;;;20.33;100.00
13734;BME280;43298;52.560;13.508;2023-07-20T08:27:48;100613.66;;;20.39;100.00
13734;BME280;43298;52.560;13.508;2023-07-20T08:30:14;100608.31;;;20.20;100.00
13734;BME280;43298;52.560;13.508;2023-07-20T08:32:40;100628.34;;;20.63;100.00
13734;BME280;43298;52.560;13.508;2023-07-20T08:35:06;100621.28;;;21.23;100.00
13734;BME280;43298;52.560;13.508;2023-07-20T08:37:33;100630.91;;;21.43;100.00
13734;BME280;43298;52.560;13.508;2023-07-20T08:39:59;100632.03;;;21.50;100.00
13734;BME280;43298;52.560;13.508;2023-07-20T08:42:26;100620.03;;;21.86;100.00
13734;BME280;43298;52.560;13.508;2023-07-20T08:44:53;100626.25;;;22.04;100.00
13734;BME280;43298;52.560;13.508;2023-07-20T08:47:21;100626.53;;;21.82;100.00
13734;BME280;43298;52.560;13.508;2023-07-20T08:49:51;100619.22;;;21.95;100.00
13734;BME280;43298;52.560;13.508;2023-07-20T08:52:18;100627.03;;;21.66;100.00
13734;BME280;43298;52.560;13.508;2023-07-20T08:54:44;100621.38;;;21.71;100.00
13734;BME280;43298;52.560;13.508;2023-07-20T08:57:13;100618.47;;;21.64;100.00
13734;BME280;43298;52.560;13.508;2023-07-20T08:59:40;100610.56;;;21.64;100.00
13734;BME280;43298;52.560;13.508;2023-07-20T09:02:08;100623.19;;;22.18;100.00
13734;BME280;43298;52.560;13.508;2023-07-20T09:04:37;100617.47;;;22.41;100.00
13734;BME280;43298;52.560;13.508;2023-07-20T09:07:03;100623.59;;;23.52;100.00
13734;BME280;43298;52.560;13.508;2023-07-20T09:09:30;100628.22;;;23.22;100.00
13734;BME280;43298;52.560;13.508;2023-07-20T09:11:56;100628.63;;;23.72;100.00
13734;BME280;43298;52.560;13.508;2023-07-20T09:14:23;100624.66;;;23.04;100.00
13734;BME280;43298;52.560;13.508;2023-07-20T09:16:54;100619.91;;;22.16;100.00
13734;BME280;43298;52.560;13.508;2023-07-20T09:19:21;100629.84;;;22.50;100.00
13734;BME280;43298;52.560;13.508;2023-07-20T09:21:49;100622.53;;;21.78;100.00
13734;BME280;43298;52.560;13.508;2023-07-20T09:24:19;100612.56;;;22.00;100.00
13734;BME280;43298;52.560;13.508;2023-07-20T09:26:47;100621.69;;;21.87;100.00
13734;BME280;43298;52.560;13.508;2023-07-20T09:29:20;100619.28;;;22.31;100.00
13734;BME280;43298;52.560;13.508;2023-07-20T09:32:00;100610.44;;;22.88;100.00
13734;BME280;43298;52.560;13.508;2023-07-20T09:34:28;100609.97;;;23.02;100.00
13734;BME280;43298;52.560;13.508;2023-07-20T09:36:54;100611.13;;;22.25;100.00
13734;BME280;43298;52.560;13.508;2023-07-20T09:39:21;100615.81;;;22.40;100.00
13734;BME280;43298;52.560;13.508;2023-07-20T09:41:46;100614.13;;;22.68;100.00
13734;BME280;43298;52.560;13.508;2023-07-20T09:44:14;100612.25;;;22.22;100.00
13734;BME280;43298;52.560;13.508;2023-07-20T09:46:48;100618.50;;;21.83;100.00
13734;BME280;43298;52.560;13.508;2023-07-20T09:49:14;100626.50;;;21.14;100.00
13734;BME280;43298;52.560;13.508;2023-07-20T09:51:41;100624.78;;;20.94;100.00
13734;BME280;43298;52.560;13.508;2023-07-20T09:54:08;100630.56;;;20.67;100.00
13734;BME280;43298;52.560;13.508;2023-07-20T09:56:35;100640.25;;;20.25;100.00
13734;BME280;43298;52.560;13.508;2023-07-20T09:59:01;100638.47;;;20.26;100.00
13734;BME280;43298;52.560;13.508;2023-07-20T10:01:29;100646.66;;;20.12;100.00
13734;BME280;43298;52.560;13.508;2023-07-20T10:03:58;100654.50;;;19.69;100.00
13734;BME280;43298;52.560;13.508;2023-07-20T10:06:29;100660.97;;;19.65;100.00
13734;BME280;43298;52.560;13.508;2023-07-20T10:09:03;100655.22;;;19.82;100.00
13734;BME280;43298;52.560;13.508;2023-07-20T10:11:36;100655.69;;;19.76;100.00
13734;BME280;43298;52.560;13.508;2023-07-20T10:14:05;100654.16;;;19.74;100.00
13734;BME280;43298;52.560;13.508;2023-07-20T10:16:35;100658.22;;;20.09;100.00
13734;BME280;43298;52.560;13.508;2023-07-20T10:19:17;100652.94;;;20.20;100.00
13734;BME280;43298;52.560;13.508;2023-07-20T10:21:57;100651.34;;;20.49;100.00
13734;BME280;43298;52.560;13.508;2023-07-20T10:24:26;100649.88;;;20.56;100.00
13734;BME280;43298;52.560;13.508;2023-07-20T10:26:55;100652.38;;;20.58;100.00
13734;BME280;43298;52.560;13.508;2023-07-20T10:29:22;100649.34;;;20.83;100.00
13734;BME280;43298;52.560;13.508;2023-07-20T10:31:49;100645.00;;;20.93;100.00
13734;BME280;43298;52.560;13.508;2023-07-20T10:34:15;100638.78;;;20.74;100.00
13734;BME280;43298;52.560;13.508;2023-07-20T10:36:45;100639.59;;;20.95;100.00
13734;BME280;43298;52.560;13.508;2023-07-20T10:39:47;100651.00;;;20.84;100.00
13734;BME280;43298;52.560;13.508;2023-07-20T10:42:12;100638.00;;;21.13;100.00
13734;BME280;43298;52.560;13.508;2023-07-20T10:44:39;100638.88;;;21.72;100.00
13734;BME280;43298;52.560;13.508;2023-07-20T10:47:10;100635.97;;;21.94;100.00
13734;BME280;43298;52.560;13.508;2023-07-20T10:49:58;100636.66;;;21.96;100.00
13734;BME280;43298;52.560;13.508;2023-07-20T10:52:25;100641.38;;;21.83;100.00
13734;BME280;43298;52.560;13.508;2023-07-20T10:54:51;100642.34;;;21.91;100.00
13734;BME280;43298;52.560;13.508;2023-07-20T10:57:29;100632.22;;;22.25;100.00
13734;BME280;43298;52.560;13.508;2023-07-20T11:00:13;100640.66;;;22.19;100.00
13734;BME280;43298;52.560;13.508;2023-07-20T11:02:49;100633.16;;;22.43;100.00
13734;BME280;43298;52.560;13.508;2023-07-20T11:05:40;100641.50;;;22.19;100.00
13734;BME280;43298;52.560;13.508;2023-07-20T11:08:12;100638.47;;;22.14;100.00
13734;BME280;43298;52.560;13.508;2023-07-20T11:10:39;100641.13;;;22.05;100.00
13734;BME280;43298;52.560;13.508;2023-07-20T11:13:24;100646.50;;;22.13;100.00
13734;BME280;43298;52.560;13.508;2023-07-20T11:18:26;100649.69;;;22.54;100.00
13734;BME280;43298;52.560;13.508;2023-07-20T11:20:53;100634.22;;;23.42;100.00
13734;BME280;43298;52.560;13.508;2023-07-20T11:23:22;100635.06;;;24.22;97.22
13734;BME280;43298;52.560;13.508;2023-07-20T11:25:49;100632.84;;;23.83;92.87
13734;BME280;43298;52.560;13.508;2023-07-20T11:28:15;100633.44;;;23.05;92.59
13734;BME280;43298;52.560;13.508;2023-07-20T11:30:41;100641.78;;;22.35;95.41
13734;BME280;43298;52.560;13.508;2023-07-20T11:33:10;100633.47;;;22.11;97.75
13734;BME280;43298;52.560;13.508;2023-07-20T11:35:44;100633.97;;;22.62;99.49
13734;BME280;43298;52.560;13.508;2023-07-20T11:38:10;100636.22;;;23.30;95.33
13734;BME280;43298;52.560;13.508;2023-07-20T11:40:45;100633.97;;;23.80;96.00
13734;BME280;43298;52.560;13.508;2023-07-20T11:43:13;100639.59;;;24.12;91.33
13734;BME280;43298;52.560;13.508;2023-07-20T11:45:39;100631.50;;;24.57;90.72
13734;BME280;43298;52.560;13.508;2023-07-20T11:48:05;100629.50;;;24.76;89.99
13734;BME280;43298;52.560;13.508;2023-07-20T11:50:31;100626.59;;;24.87;85.60
13734;BME280;43298;52.560;13.508;2023-07-20T11:52:57;100630.66;;;24.13;86.66
13734;BME280;43298;52.560;13.508;2023-07-20T11:55:23;100624.88;;;23.20;90.78
13734;BME280;43298;52.560;13.508;2023-07-20T11:58:06;100621.22;;;22.94;92.69
13734;BME280;43298;52.560;13.508;2023-07-20T12:00:33;100628.66;;;22.72;94.23
13734;BME280;43298;52.560;13.508;2023-07-20T12:03:00;100629.81;;;22.60;95.38
13734;BME280;43298;52.560;13.508;2023-07-20T12:05:26;100627.34;;;23.32;94.85
13734;BME280;43298;52.560;13.508;2023-07-20T12:07:54;100636.38;;;22.56;98.64
13734;BME280;43298;52.560;13.508;2023-07-20T12:10:27;100640.69;;;21.90;100.00
13734;BME280;43298;52.560;13.508;2023-07-20T12:12:54;100654.97;;;21.29;100.00
13734;BME280;43298;52.560;13.508;2023-07-20T12:15:24;100657.66;;;20.88;100.00
13734;BME280;43298;52.560;13.508;2023-07-20T12:17:57;100653.69;;;20.94;100.00
13734;BME280;43298;52.560;13.508;2023-07-20T12:20:32;100663.25;;;20.95;100.00
13734;BME280;43298;52.560;13.508;2023-07-20T12:23:04;100661.91;;;21.00;100.00
13734;BME280;43298;52.560;13.508;2023-07-20T12:25:41;100653.41;;;20.67;100.00
13734;BME280;43298;52.560;13.508;2023-07-20T12:28:19;100653.72;;;20.52;100.00
13734;BME280;43298;52.560;13.508;2023-07-20T12:30:46;100648.00;;;20.68;100.00
13734;BME280;43298;52.560;13.508;2023-07-20T12:33:14;100649.41;;;20.72;100.00
13734;BME280;43298;52.560;13.508;2023-07-20T12:35:43;100646.06;;;21.21;100.00
13734;BME280;43298;52.560;13.508;2023-07-20T12:38:09;100649.22;;;21.64;100.00
13734;BME280;43298;52.560;13.508;2023-07-20T12:40:35;100650.53;;;22.07;100.00
13734;BME280;43298;52.560;13.508;2023-07-20T12:43:01;100650.41;;;22.93;98.94
13734;BME280;43298;52.560;13.508;2023-07-20T12:45:27;100648.06;;;23.71;91.80